Forside
METAR-TAF:

METAR-TAF

Lufthavne :

Waupaca Municipal Airport

Waupaca, Wisconsin, USA

Breddekreds: 44-20-01N, længdekreds: 089-00-55W, højde: 252 m

Aktuelle vejr

Denne rapport blev lavet for 11 minutter siden, kl. 00:55 UTC
Vind 4 kt fra nordvest
Temperatur 17°C
Fugtighed 42%
Tryk 1012 hPa
Sigt: 16.1 km
Spredte skyer i en højde af 9000 ft

METAR: KPCZ 220055Z AUTO 31004KT 10SM SCT090 17/04 A2989 RMK AO2 T01680040

Tid: 20:06 (01:06 UTC)


TAF: fraværende

Vejrobservationer og prognoser fra mere end 4000 lufthavne (METAR og TAF).

De gule og røde prikker repræsenterer de meteorologiske stationer.

Flyt musen over at se navnet på stationen.

Så klik over at se vejr observationer og prognoser.

At skifte det kort: Klik på de grønne knapper med et sort kors for at zoome ind; på den grønne knap med en bindestreg for at zoome ud; eller på de grønne pile for tilstødende kort.


METAR-TAF: